sensor_id;sensor_type;location;lat;lon;timestamp;temperature;humidity
46932;DHT22;32670;51.464;11.964;2023-05-23T00:02:03;25.00;56.10
46932;DHT22;32670;51.464;11.964;2023-05-23T00:04:33;25.00;56.30
46932;DHT22;32670;51.464;11.964;2023-05-23T00:07:00;25.00;56.50
46932;DHT22;32670;51.464;11.964;2023-05-23T00:09:25;24.80;56.60
46932;DHT22;32670;51.464;11.964;2023-05-23T00:11:51;24.90;56.90
46932;DHT22;32670;51.464;11.964;2023-05-23T00:14:16;24.80;56.80
46932;DHT22;32670;51.464;11.964;2023-05-23T00:16:43;24.80;56.80
46932;DHT22;32670;51.464;11.964;2023-05-23T00:19:10;24.80;56.90
46932;DHT22;32670;51.464;11.964;2023-05-23T00:21:36;24.80;56.90
46932;DHT22;32670;51.464;11.964;2023-05-23T00:24:01;24.80;56.80
46932;DHT22;32670;51.464;11.964;2023-05-23T00:26:27;24.80;56.80
46932;DHT22;32670;51.464;11.964;2023-05-23T00:28:55;24.90;56.90
46932;DHT22;32670;51.464;11.964;2023-05-23T00:31:21;24.80;56.70
46932;DHT22;32670;51.464;11.964;2023-05-23T00:33:47;24.80;56.70
46932;DHT22;32670;51.464;11.964;2023-05-23T00:36:12;24.90;56.80
46932;DHT22;32670;51.464;11.964;2023-05-23T00:38:38;24.90;56.80
46932;DHT22;32670;51.464;11.964;2023-05-23T00:41:04;24.90;56.50
46932;DHT22;32670;51.464;11.964;2023-05-23T00:43:30;24.90;56.50
46932;DHT22;32670;51.464;11.964;2023-05-23T00:45:56;24.90;56.50
46932;DHT22;32670;51.464;11.964;2023-05-23T00:48:22;24.90;56.50
46932;DHT22;32670;51.464;11.964;2023-05-23T00:50:48;24.90;56.60
46932;DHT22;32670;51.464;11.964;2023-05-23T00:53:14;24.80;56.70
46932;DHT22;32670;51.464;11.964;2023-05-23T00:55:41;24.90;56.60
46932;DHT22;32670;51.464;11.964;2023-05-23T00:58:06;24.90;56.60
46932;DHT22;32670;51.464;11.964;2023-05-23T01:00:32;24.90;56.60
46932;DHT22;32670;51.464;11.964;2023-05-23T01:02:58;24.90;56.60
46932;DHT22;32670;51.464;11.964;2023-05-23T01:05:25;24.90;56.90
46932;DHT22;32670;51.464;11.964;2023-05-23T01:07:50;24.90;56.90
46932;DHT22;32670;51.464;11.964;2023-05-23T01:10:18;24.90;57.10
46932;DHT22;32670;51.464;11.964;2023-05-23T01:15:24;24.90;57.30
46932;DHT22;32670;51.464;11.964;2023-05-23T01:18:12;24.90;57.30
46932;DHT22;32670;51.464;11.964;2023-05-23T01:20:42;24.90;57.50
46932;DHT22;32670;51.464;11.964;2023-05-23T01:28:55;24.80;57.60
46932;DHT22;32670;51.464;11.964;2023-05-23T01:31:24;24.80;57.60
46932;DHT22;32670;51.464;11.964;2023-05-23T01:33:52;24.80;57.60
46932;DHT22;32670;51.464;11.964;2023-05-23T01:36:19;24.80;57.60
46932;DHT22;32670;51.464;11.964;2023-05-23T01:38:44;24.80;57.70
46932;DHT22;32670;51.464;11.964;2023-05-23T01:41:10;24.80;57.90
46932;DHT22;32670;51.464;11.964;2023-05-23T01:43:35;24.80;57.90
46932;DHT22;32670;51.464;11.964;2023-05-23T01:46:02;24.70;57.80
46932;DHT22;32670;51.464;11.964;2023-05-23T01:48:28;24.70;58.00
46932;DHT22;32670;51.464;11.964;2023-05-23T01:50:54;24.80;57.60
46932;DHT22;32670;51.464;11.964;2023-05-23T01:53:22;24.80;56.70
46932;DHT22;32670;51.464;11.964;2023-05-23T01:55:48;24.90;57.20
46932;DHT22;32670;51.464;11.964;2023-05-23T01:58:13;24.90;57.50
46932;DHT22;32670;51.464;11.964;2023-05-23T02:00:39;25.00;57.20
46932;DHT22;32670;51.464;11.964;2023-05-23T02:03:05;25.10;57.10
46932;DHT22;32670;51.464;11.964;2023-05-23T02:05:31;25.10;56.90
46932;DHT22;32670;51.464;11.964;2023-05-23T02:07:56;25.10;56.90
46932;DHT22;32670;51.464;11.964;2023-05-23T02:10:22;25.10;56.80
46932;DHT22;32670;51.464;11.964;2023-05-23T02:12:47;25.20;56.70
46932;DHT22;32670;51.464;11.964;2023-05-23T02:15:13;25.20;56.70
46932;DHT22;32670;51.464;11.964;2023-05-23T02:17:38;25.20;57.20
46932;DHT22;32670;51.464;11.964;2023-05-23T02:20:06;25.20;56.60
46932;DHT22;32670;51.464;11.964;2023-05-23T02:22:31;25.20;56.70
46932;DHT22;32670;51.464;11.964;2023-05-23T02:24:57;25.30;56.60
46932;DHT22;32670;51.464;11.964;2023-05-23T02:27:23;25.20;56.40
46932;DHT22;32670;51.464;11.964;2023-05-23T02:29:48;25.30;57.10
46932;DHT22;32670;51.464;11.964;2023-05-23T02:32:13;25.30;56.50
46932;DHT22;32670;51.464;11.964;2023-05-23T02:34:39;25.30;56.50
46932;DHT22;32670;51.464;11.964;2023-05-23T02:37:04;25.30;56.50
46932;DHT22;32670;51.464;11.964;2023-05-23T02:39:30;25.30;56.40
46932;DHT22;32670;51.464;11.964;2023-05-23T02:41:55;25.30;56.30
46932;DHT22;32670;51.464;11.964;2023-05-23T02:44:21;25.30;56.30
46932;DHT22;32670;51.464;11.964;2023-05-23T02:46:46;25.30;56.30
46932;DHT22;32670;51.464;11.964;2023-05-23T02:49:12;25.30;56.30
46932;DHT22;32670;51.464;11.964;2023-05-23T02:51:37;25.30;56.30
46932;DHT22;32670;51.464;11.964;2023-05-23T02:54:03;25.30;56.30
46932;DHT22;32670;51.464;11.964;2023-05-23T02:56:29;25.40;56.20
46932;DHT22;32670;51.464;11.964;2023-05-23T02:58:54;25.30;56.20
46932;DHT22;32670;51.464;11.964;2023-05-23T03:01:20;25.40;56.50
46932;DHT22;32670;51.464;11.964;2023-05-23T03:03:45;25.40;56.40
46932;DHT22;32670;51.464;11.964;2023-05-23T03:06:11;25.40;56.40
46932;DHT22;32670;51.464;11.964;2023-05-23T03:08:39;25.40;56.40
46932;DHT22;32670;51.464;11.964;2023-05-23T03:11:04;25.40;56.50
46932;DHT22;32670;51.464;11.964;2023-05-23T03:13:30;25.40;56.30
46932;DHT22;32670;51.464;11.964;2023-05-23T03:15:55;25.30;56.30
46932;DHT22;32670;51.464;11.964;2023-05-23T03:18:21;25.40;56.40
46932;DHT22;32670;51.464;11.964;2023-05-23T03:20:46;25.40;56.50
46932;DHT22;32670;51.464;11.964;2023-05-23T03:23:12;25.40;56.60
46932;DHT22;32670;51.464;11.964;2023-05-23T03:25:37;25.40;56.40
46932;DHT22;32670;51.464;11.964;2023-05-23T03:28:03;25.40;56.50
46932;DHT22;32670;51.464;11.964;2023-05-23T03:30:28;25.40;56.50
46932;DHT22;32670;51.464;11.964;2023-05-23T03:32:53;25.40;56.40
46932;DHT22;32670;51.464;11.964;2023-05-23T03:35:19;25.40;56.50
46932;DHT22;32670;51.464;11.964;2023-05-23T03:37:45;25.40;56.50
46932;DHT22;32670;51.464;11.964;2023-05-23T03:40:10;25.40;56.50
46932;DHT22;32670;51.464;11.964;2023-05-23T03:42:38;25.40;56.50
46932;DHT22;32670;51.464;11.964;2023-05-23T03:45:04;25.40;56.50
46932;DHT22;32670;51.464;11.964;2023-05-23T03:47:29;25.40;56.60
46932;DHT22;32670;51.464;11.964;2023-05-23T03:49:55;25.40;56.50
46932;DHT22;32670;51.464;11.964;2023-05-23T03:52:21;25.40;56.50
46932;DHT22;32670;51.464;11.964;2023-05-23T03:54:46;25.40;56.50
46932;DHT22;32670;51.464;11.964;2023-05-23T03:57:11;25.40;56.50
46932;DHT22;32670;51.464;11.964;2023-05-23T03:59:37;25.40;56.70
46932;DHT22;32670;51.464;11.964;2023-05-23T04:02:02;25.40;56.60
46932;DHT22;32670;51.464;11.964;2023-05-23T04:04:28;25.50;56.70
46932;DHT22;32670;51.464;11.964;2023-05-23T04:06:54;25.50;56.80
46932;DHT22;32670;51.464;11.964;2023-05-23T04:09:20;25.50;56.90
46932;DHT22;32670;51.464;11.964;2023-05-23T04:11:45;25.50;57.00
46932;DHT22;32670;51.464;11.964;2023-05-23T04:14:11;25.50;57.00
46932;DHT22;32670;51.464;11.964;2023-05-23T04:16:37;25.50;57.00
46932;DHT22;32670;51.464;11.964;2023-05-23T04:19:06;25.50;57.10
46932;DHT22;32670;51.464;11.964;2023-05-23T04:21:32;25.50;57.10
46932;DHT22;32670;51.464;11.964;2023-05-23T04:23:57;25.50;57.00
46932;DHT22;32670;51.464;11.964;2023-05-23T04:26:23;25.50;56.90
46932;DHT22;32670;51.464;11.964;2023-05-23T04:28:49;25.50;57.00
46932;DHT22;32670;51.464;11.964;2023-05-23T04:31:21;25.50;57.00
46932;DHT22;32670;51.464;11.964;2023-05-23T04:33:47;25.60;57.10
46932;DHT22;32670;51.464;11.964;2023-05-23T04:36:13;25.60;57.00
46932;DHT22;32670;51.464;11.964;2023-05-23T04:38:38;25.60;57.20
46932;DHT22;32670;51.464;11.964;2023-05-23T04:41:05;25.60;57.00
46932;DHT22;32670;51.464;11.964;2023-05-23T04:43:31;25.60;57.10
46932;DHT22;32670;51.464;11.964;2023-05-23T04:45:58;25.60;57.20
46932;DHT22;32670;51.464;11.964;2023-05-23T04:48:24;25.60;57.20
46932;DHT22;32670;51.464;11.964;2023-05-23T04:50:51;25.60;57.20
46932;DHT22;32670;51.464;11.964;2023-05-23T04:53:17;25.60;57.30
46932;DHT22;32670;51.464;11.964;2023-05-23T04:55:42;25.60;57.30
46932;DHT22;32670;51.464;11.964;2023-05-23T04:58:08;25.60;57.20
46932;DHT22;32670;51.464;11.964;2023-05-23T05:00:34;25.60;57.30
46932;DHT22;32670;51.464;11.964;2023-05-23T05:03:00;25.60;57.30
46932;DHT22;32670;51.464;11.964;2023-05-23T05:05:26;25.60;57.50
46932;DHT22;32670;51.464;11.964;2023-05-23T05:07:51;25.70;57.50
46932;DHT22;32670;51.464;11.964;2023-05-23T05:10:16;25.70;57.70
46932;DHT22;32670;51.464;11.964;2023-05-23T05:12:46;25.60;57.50
46932;DHT22;32670;51.464;11.964;2023-05-23T05:15:14;25.60;57.30
46932;DHT22;32670;51.464;11.964;2023-05-23T05:17:41;25.50;55.80
46932;DHT22;32670;51.464;11.964;2023-05-23T05:20:07;25.40;55.20
46932;DHT22;32670;51.464;11.964;2023-05-23T05:22:34;25.20;55.00
46932;DHT22;32670;51.464;11.964;2023-05-23T05:25:01;25.00;55.10
46932;DHT22;32670;51.464;11.964;2023-05-23T05:27:27;24.90;55.30
46932;DHT22;32670;51.464;11.964;2023-05-23T05:29:53;24.80;55.50
46932;DHT22;32670;51.464;11.964;2023-05-23T05:32:21;24.70;55.70
46932;DHT22;32670;51.464;11.964;2023-05-23T05:34:47;24.60;55.90
46932;DHT22;32670;51.464;11.964;2023-05-23T05:37:12;24.50;56.00
46932;DHT22;32670;51.464;11.964;2023-05-23T05:39:38;24.50;56.10
46932;DHT22;32670;51.464;11.964;2023-05-23T05:42:04;24.50;56.20
46932;DHT22;32670;51.464;11.964;2023-05-23T05:44:30;24.40;56.30
46932;DHT22;32670;51.464;11.964;2023-05-23T05:46:55;24.40;56.40
46932;DHT22;32670;51.464;11.964;2023-05-23T05:49:21;24.40;56.40
46932;DHT22;32670;51.464;11.964;2023-05-23T05:51:46;24.30;56.30
46932;DHT22;32670;51.464;11.964;2023-05-23T05:54:12;24.20;56.30
46932;DHT22;32670;51.464;11.964;2023-05-23T05:56:37;24.20;56.50
46932;DHT22;32670;51.464;11.964;2023-05-23T05:59:03;24.20;56.60
46932;DHT22;32670;51.464;11.964;2023-05-23T06:01:28;24.20;56.70
46932;DHT22;32670;51.464;11.964;2023-05-23T06:03:55;24.10;56.80
46932;DHT22;32670;51.464;11.964;2023-05-23T06:06:20;24.10;56.90
46932;DHT22;32670;51.464;11.964;2023-05-23T06:08:46;24.00;56.50
46932;DHT22;32670;51.464;11.964;2023-05-23T06:11:12;23.90;56.30
46932;DHT22;32670;51.464;11.964;2023-05-23T06:13:37;23.80;56.30
46932;DHT22;32670;51.464;11.964;2023-05-23T06:16:03;23.70;56.40
46932;DHT22;32670;51.464;11.964;2023-05-23T06:18:29;23.60;55.80
46932;DHT22;32670;51.464;11.964;2023-05-23T06:20:54;23.70;55.80
46932;DHT22;32670;51.464;11.964;2023-05-23T06:23:20;23.60;55.50
46932;DHT22;32670;51.464;11.964;2023-05-23T06:25:45;23.70;55.40
46932;DHT22;32670;51.464;11.964;2023-05-23T06:28:11;23.60;55.10
46932;DHT22;32670;51.464;11.964;2023-05-23T06:30:36;23.70;55.40
46932;DHT22;32670;51.464;11.964;2023-05-23T06:33:03;23.70;55.30
46932;DHT22;32670;51.464;11.964;2023-05-23T06:35:28;23.80;55.10
46932;DHT22;32670;51.464;11.964;2023-05-23T06:37:54;23.90;54.80
46932;DHT22;32670;51.464;11.964;2023-05-23T06:40:20;24.00;54.60
46932;DHT22;32670;51.464;11.964;2023-05-23T06:42:45;24.10;54.40
46932;DHT22;32670;51.464;11.964;2023-05-23T06:45:11;24.20;54.20
46932;DHT22;32670;51.464;11.964;2023-05-23T06:47:37;24.20;54.10
46932;DHT22;32670;51.464;11.964;2023-05-23T06:50:03;24.20;53.90
46932;DHT22;32670;51.464;11.964;2023-05-23T06:52:28;24.30;53.90
46932;DHT22;32670;51.464;11.964;2023-05-23T06:54:54;24.30;53.70
46932;DHT22;32670;51.464;11.964;2023-05-23T06:57:19;24.40;53.70
46932;DHT22;32670;51.464;11.964;2023-05-23T06:59:45;24.40;53.60
46932;DHT22;32670;51.464;11.964;2023-05-23T07:02:10;24.40;53.50
46932;DHT22;32670;51.464;11.964;2023-05-23T07:04:36;24.40;53.40
46932;DHT22;32670;51.464;11.964;2023-05-23T07:07:01;24.40;53.30
46932;DHT22;32670;51.464;11.964;2023-05-23T07:09:27;24.40;53.20
46932;DHT22;32670;51.464;11.964;2023-05-23T07:11:52;24.50;53.30
46932;DHT22;32670;51.464;11.964;2023-05-23T07:14:18;24.50;53.20
46932;DHT22;32670;51.464;11.964;2023-05-23T07:16:44;24.50;53.10
46932;DHT22;32670;51.464;11.964;2023-05-23T07:19:09;24.50;53.10
46932;DHT22;32670;51.464;11.964;2023-05-23T07:21:35;24.50;53.00
46932;DHT22;32670;51.464;11.964;2023-05-23T07:24:00;24.50;53.00
46932;DHT22;32670;51.464;11.964;2023-05-23T07:26:26;24.50;53.00
46932;DHT22;32670;51.464;11.964;2023-05-23T07:28:51;24.50;53.00
46932;DHT22;32670;51.464;11.964;2023-05-23T07:31:17;24.50;52.90
46932;DHT22;32670;51.464;11.964;2023-05-23T07:33:42;24.50;52.90
46932;DHT22;32670;51.464;11.964;2023-05-23T07:36:09;24.50;52.90
46932;DHT22;32670;51.464;11.964;2023-05-23T07:38:34;24.60;52.90
46932;DHT22;32670;51.464;11.964;2023-05-23T07:41:00;24.60;52.90
46932;DHT22;32670;51.464;11.964;2023-05-23T07:43:25;24.50;52.80
46932;DHT22;32670;51.464;11.964;2023-05-23T07:45:51;24.50;52.60
46932;DHT22;32670;51.464;11.964;2023-05-23T07:48:16;24.60;52.70
46932;DHT22;32670;51.464;11.964;2023-05-23T07:50:41;24.60;52.70
46932;DHT22;32670;51.464;11.964;2023-05-23T07:53:07;24.60;52.60
46932;DHT22;32670;51.464;11.964;2023-05-23T07:55:33;24.60;52.60
46932;DHT22;32670;51.464;11.964;2023-05-23T07:57:58;24.60;52.70
46932;DHT22;32670;51.464;11.964;2023-05-23T08:00:24;24.60;52.50
46932;DHT22;32670;51.464;11.964;2023-05-23T08:02:49;24.60;52.50
46932;DHT22;32670;51.464;11.964;2023-05-23T08:05:15;24.60;52.50
46932;DHT22;32670;51.464;11.964;2023-05-23T08:07:40;24.60;52.50
46932;DHT22;32670;51.464;11.964;2023-05-23T08:10:06;24.60;52.50
46932;DHT22;32670;51.464;11.964;2023-05-23T08:12:32;24.60;52.40
46932;DHT22;32670;51.464;11.964;2023-05-23T08:14:58;24.60;52.40
46932;DHT22;32670;51.464;11.964;2023-05-23T08:17:23;24.60;52.40
46932;DHT22;32670;51.464;11.964;2023-05-23T08:19:48;24.60;52.40
46932;DHT22;32670;51.464;11.964;2023-05-23T08:22:14;24.60;52.30
46932;DHT22;32670;51.464;11.964;2023-05-23T08:24:39;24.60;52.30
46932;DHT22;32670;51.464;11.964;2023-05-23T08:27:05;24.60;52.30
46932;DHT22;32670;51.464;11.964;2023-05-23T08:29:32;24.60;52.30
46932;DHT22;32670;51.464;11.964;2023-05-23T08:31:59;24.60;52.30
46932;DHT22;32670;51.464;11.964;2023-05-23T08:34:25;24.60;52.20
46932;DHT22;32670;51.464;11.964;2023-05-23T08:36:50;24.60;52.20
46932;DHT22;32670;51.464;11.964;2023-05-23T08:39:16;24.60;52.20
46932;DHT22;32670;51.464;11.964;2023-05-23T08:41:42;24.60;52.20
46932;DHT22;32670;51.464;11.964;2023-05-23T08:44:08;24.60;52.20
46932;DHT22;32670;51.464;11.964;2023-05-23T08:46:43;24.60;52.20
46932;DHT22;32670;51.464;11.964;2023-05-23T08:49:10;24.60;52.10
46932;DHT22;32670;51.464;11.964;2023-05-23T08:51:41;24.60;52.10
46932;DHT22;32670;51.464;11.964;2023-05-23T08:54:07;24.60;52.10
46932;DHT22;32670;51.464;11.964;2023-05-23T08:56:34;24.60;52.00
46932;DHT22;32670;51.464;11.964;2023-05-23T08:59:00;24.60;52.10
46932;DHT22;32670;51.464;11.964;2023-05-23T09:01:26;24.60;52.10
46932;DHT22;32670;51.464;11.964;2023-05-23T09:03:52;24.70;52.10
46932;DHT22;32670;51.464;11.964;2023-05-23T09:06:20;24.60;52.10
46932;DHT22;32670;51.464;11.964;2023-05-23T09:08:46;24.70;52.10
46932;DHT22;32670;51.464;11.964;2023-05-23T09:11:12;24.60;52.00
46932;DHT22;32670;51.464;11.964;2023-05-23T09:13:38;24.70;52.00
46932;DHT22;32670;51.464;11.964;2023-05-23T09:16:05;24.60;51.90
46932;DHT22;32670;51.464;11.964;2023-05-23T09:18:39;24.60;52.00
46932;DHT22;32670;51.464;11.964;2023-05-23T09:21:04;24.60;51.90
46932;DHT22;32670;51.464;11.964;2023-05-23T09:23:31;24.60;51.90
46932;DHT22;32670;51.464;11.964;2023-05-23T09:26:07;24.70;51.90
46932;DHT22;32670;51.464;11.964;2023-05-23T09:28:34;24.60;51.80
46932;DHT22;32670;51.464;11.964;2023-05-23T09:31:00;24.60;51.80
46932;DHT22;32670;51.464;11.964;2023-05-23T09:36:07;24.60;51.70
46932;DHT22;32670;51.464;11.964;2023-05-23T09:38:37;24.70;51.80
46932;DHT22;32670;51.464;11.964;2023-05-23T09:41:03;24.70;51.80
46932;DHT22;32670;51.464;11.964;2023-05-23T09:43:28;24.70;51.70
46932;DHT22;32670;51.464;11.964;2023-05-23T09:45:54;24.70;51.60
46932;DHT22;32670;51.464;11.964;2023-05-23T09:48:27;24.70;51.70
46932;DHT22;32670;51.464;11.964;2023-05-23T09:50:54;24.70;51.60
46932;DHT22;32670;51.464;11.964;2023-05-23T09:53:20;24.70;51.60
46932;DHT22;32670;51.464;11.964;2023-05-23T09:55:50;24.70;51.60
46932;DHT22;32670;51.464;11.964;2023-05-23T09:58:19;24.70;51.50
46932;DHT22;32670;51.464;11.964;2023-05-23T10:00:46;24.70;51.60
46932;DHT22;32670;51.464;11.964;2023-05-23T10:03:15;24.70;51.60
46932;DHT22;32670;51.464;11.964;2023-05-23T10:05:43;24.70;51.60
46932;DHT22;32670;51.464;11.964;2023-05-23T10:08:20;24.70;51.50
46932;DHT22;32670;51.464;11.964;2023-05-23T10:13:26;24.70;51.50
46932;DHT22;32670;51.464;11.964;2023-05-23T10:16:12;24.60;51.40
46932;DHT22;32670;51.464;11.964;2023-05-23T10:18:42;24.60;51.40
46932;DHT22;32670;51.464;11.964;2023-05-23T10:21:16;24.70;51.50
46932;DHT22;32670;51.464;11.964;2023-05-23T10:23:46;24.70;51.40
46932;DHT22;32670;51.464;11.964;2023-05-23T10:26:12;24.70;51.40
46932;DHT22;32670;51.464;11.964;2023-05-23T10:28:39;24.70;51.40
46932;DHT22;32670;51.464;11.964;2023-05-23T10:31:06;24.70;51.30
46932;DHT22;32670;51.464;11.964;2023-05-23T10:33:36;24.70;51.60
46932;DHT22;32670;51.464;11.964;2023-05-23T10:36:09;24.70;51.40
46932;DHT22;32670;51.464;11.964;2023-05-23T10:38:53;24.60;51.20
46932;DHT22;32670;51.464;11.964;2023-05-23T10:41:33;24.70;51.30
46932;DHT22;32670;51.464;11.964;2023-05-23T10:44:16;24.70;51.30
46932;DHT22;32670;51.464;11.964;2023-05-23T10:46:55;24.70;51.20
46932;DHT22;32670;51.464;11.964;2023-05-23T10:49:42;24.70;51.20
46932;DHT22;32670;51.464;11.964;2023-05-23T10:52:10;24.70;51.20
46932;DHT22;32670;51.464;11.964;2023-05-23T10:54:45;24.70;51.20
46932;DHT22;32670;51.464;11.964;2023-05-23T10:57:14;24.60;51.20
46932;DHT22;32670;51.464;11.964;2023-05-23T10:59:41;24.70;51.20
46932;DHT22;32670;51.464;11.964;2023-05-23T11:02:12;24.60;51.20
46932;DHT22;32670;51.464;11.964;2023-05-23T11:04:38;24.70;51.20
46932;DHT22;32670;51.464;11.964;2023-05-23T11:07:04;24.60;51.10
46932;DHT22;32670;51.464;11.964;2023-05-23T11:09:29;24.70;51.20
46932;DHT22;32670;51.464;11.964;2023-05-23T11:12:06;24.60;51.10
46932;DHT22;32670;51.464;11.964;2023-05-23T11:17:16;24.60;50.90
46932;DHT22;32670;51.464;11.964;2023-05-23T11:19:59;24.60;50.90
46932;DHT22;32670;51.464;11.964;2023-05-23T11:22:27;24.60;50.80
46932;DHT22;32670;51.464;11.964;2023-05-23T11:24:55;24.60;50.90
46932;DHT22;32670;51.464;11.964;2023-05-23T11:27:38;24.60;50.90
46932;DHT22;32670;51.464;11.964;2023-05-23T11:30:07;24.60;50.90
46932;DHT22;32670;51.464;11.964;2023-05-23T11:32:34;24.60;50.80
46932;DHT22;32670;51.464;11.964;2023-05-23T11:35:01;24.60;50.70
46932;DHT22;32670;51.464;11.964;2023-05-23T11:37:28;24.60;50.70
46932;DHT22;32670;51.464;11.964;2023-05-23T11:39:54;24.60;50.90
46932;DHT22;32670;51.464;11.964;2023-05-23T11:42:19;24.60;50.80
46932;DHT22;32670;51.464;11.964;2023-05-23T11:44:48;24.60;50.80
46932;DHT22;32670;51.464;11.964;2023-05-23T11:47:14;24.60;50.80
46932;DHT22;32670;51.464;11.964;2023-05-23T11:49:39;24.60;50.80
46932;DHT22;32670;51.464;11.964;2023-05-23T11:52:06;24.60;50.80
46932;DHT22;32670;51.464;11.964;2023-05-23T11:54:32;24.60;50.70
46932;DHT22;32670;51.464;11.964;2023-05-23T11:56:57;24.60;50.70
46932;DHT22;32670;51.464;11.964;2023-05-23T11:59:24;24.60;50.70
46932;DHT22;32670;51.464;11.964;2023-05-23T12:01:51;24.60;50.70
46932;DHT22;32670;51.464;11.964;2023-05-23T12:04:16;24.60;50.70
46932;DHT22;32670;51.464;11.964;2023-05-23T12:06:44;24.60;50.70
46932;DHT22;32670;51.464;11.964;2023-05-23T12:09:10;24.60;50.70
46932;DHT22;32670;51.464;11.964;2023-05-23T12:11:38;24.60;50.70
46932;DHT22;32670;51.464;11.964;2023-05-23T12:14:05;24.60;50.60
46932;DHT22;32670;51.464;11.964;2023-05-23T12:16:31;24.60;50.60
46932;DHT22;32670;51.464;11.964;2023-05-23T12:18:58;24.60;50.60
46932;DHT22;32670;51.464;11.964;2023-05-23T12:21:25;24.60;50.60
46932;DHT22;32670;51.464;11.964;2023-05-23T12:23:51;24.70;50.70
46932;DHT22;32670;51.464;11.964;2023-05-23T12:26:17;24.60;50.60
46932;DHT22;32670;51.464;11.964;2023-05-23T12:28:43;24.60;50.60
46932;DHT22;32670;51.464;11.964;2023-05-23T12:31:14;24.60;50.60
46932;DHT22;32670;51.464;11.964;2023-05-23T12:33:41;24.70;50.60
46932;DHT22;32670;51.464;11.964;2023-05-23T12:36:13;24.70;50.60
46932;DHT22;32670;51.464;11.964;2023-05-23T12:38:40;24.60;50.50
46932;DHT22;32670;51.464;11.964;2023-05-23T12:41:09;24.70;50.50
46932;DHT22;32670;51.464;11.964;2023-05-23T12:43:39;24.60;50.50
46932;DHT22;32670;51.464;11.964;2023-05-23T12:46:05;24.60;50.50
46932;DHT22;32670;51.464;11.964;2023-05-23T12:48:30;24.60;50.40
46932;DHT22;32670;51.464;11.964;2023-05-23T12:50:56;24.60;50.50
46932;DHT22;32670;51.464;11.964;2023-05-23T12:53:22;24.60;50.50
46932;DHT22;32670;51.464;11.964;2023-05-23T12:55:47;24.60;50.40
46932;DHT22;32670;51.464;11.964;2023-05-23T12:58:13;24.70;50.50
46932;DHT22;32670;51.464;11.964;2023-05-23T13:00:38;24.60;50.40
46932;DHT22;32670;51.464;11.964;2023-05-23T13:03:04;24.60;50.40
46932;DHT22;32670;51.464;11.964;2023-05-23T13:05:30;24.60;50.40
46932;DHT22;32670;51.464;11.964;2023-05-23T13:07:56;24.60;50.40
46932;DHT22;32670;51.464;11.964;2023-05-23T13:10:23;24.60;50.30
46932;DHT22;32670;51.464;11.964;2023-05-23T13:12:49;24.60;50.30
46932;DHT22;32670;51.464;11.964;2023-05-23T13:15:14;24.60;50.20
46932;DHT22;32670;51.464;11.964;2023-05-23T13:17:40;24.60;50.30
46932;DHT22;32670;51.464;11.964;2023-05-23T13:20:06;24.60;50.20
46932;DHT22;32670;51.464;11.964;2023-05-23T13:22:33;24.60;50.20
46932;DHT22;32670;51.464;11.964;2023-05-23T13:24:59;24.60;50.20
46932;DHT22;32670;51.464;11.964;2023-05-23T13:27:24;24.60;50.30
46932;DHT22;32670;51.464;11.964;2023-05-23T13:29:50;24.60;50.20
46932;DHT22;32670;51.464;11.964;2023-05-23T13:32:15;24.60;50.20
46932;DHT22;32670;51.464;11.964;2023-05-23T13:34:41;24.60;50.20
46932;DHT22;32670;51.464;11.964;2023-05-23T13:37:06;24.60;50.70
46932;DHT22;32670;51.464;11.964;2023-05-23T13:39:32;24.60;50.20
46932;DHT22;32670;51.464;11.964;2023-05-23T13:41:57;24.60;50.00
46932;DHT22;32670;51.464;11.964;2023-05-23T13:44:23;24.60;50.10
46932;DHT22;32670;51.464;11.964;2023-05-23T13:46:48;24.60;50.10
46932;DHT22;32670;51.464;11.964;2023-05-23T13:49:14;24.60;50.10
46932;DHT22;32670;51.464;11.964;2023-05-23T13:51:39;24.60;50.10
46932;DHT22;32670;51.464;11.964;2023-05-23T13:54:07;24.60;50.10
46932;DHT22;32670;51.464;11.964;2023-05-23T13:56:32;24.60;50.10
46932;DHT22;32670;51.464;11.964;2023-05-23T13:58:58;24.60;50.00
46932;DHT22;32670;51.464;11.964;2023-05-23T14:01:23;24.60;50.00
46932;DHT22;32670;51.464;11.964;2023-05-23T14:03:49;24.60;49.90
46932;DHT22;32670;51.464;11.964;2023-05-23T14:06:14;24.60;50.00
46932;DHT22;32670;51.464;11.964;2023-05-23T14:08:40;24.60;50.00
46932;DHT22;32670;51.464;11.964;2023-05-23T14:11:05;24.60;49.90
46932;DHT22;32670;51.464;11.964;2023-05-23T14:13:31;24.60;50.00
46932;DHT22;32670;51.464;11.964;2023-05-23T14:15:57;24.60;50.00
46932;DHT22;32670;51.464;11.964;2023-05-23T14:18:22;24.70;49.90
46932;DHT22;32670;51.464;11.964;2023-05-23T14:20:47;24.60;49.80
46932;DHT22;32670;51.464;11.964;2023-05-23T14:23:13;24.60;50.50
46932;DHT22;32670;51.464;11.964;2023-05-23T14:25:38;24.60;49.90
46932;DHT22;32670;51.464;11.964;2023-05-23T14:28:04;24.60;49.90
46932;DHT22;32670;51.464;11.964;2023-05-23T14:30:29;24.60;49.90
46932;DHT22;32670;51.464;11.964;2023-05-23T14:32:55;24.60;49.90
46932;DHT22;32670;51.464;11.964;2023-05-23T14:35:20;24.60;49.90
46932;DHT22;32670;51.464;11.964;2023-05-23T14:37:46;24.60;49.80
46932;DHT22;32670;51.464;11.964;2023-05-23T14:40:12;24.60;49.80
46932;DHT22;32670;51.464;11.964;2023-05-23T14:42:38;24.60;49.80
46932;DHT22;32670;51.464;11.964;2023-05-23T14:45:04;24.60;49.80
46932;DHT22;32670;51.464;11.964;2023-05-23T14:47:30;24.60;49.80
46932;DHT22;32670;51.464;11.964;2023-05-23T14:49:56;24.60;49.80
46932;DHT22;32670;51.464;11.964;2023-05-23T14:52:22;24.60;49.70
46932;DHT22;32670;51.464;11.964;2023-05-23T14:54:47;24.60;49.70
46932;DHT22;32670;51.464;11.964;2023-05-23T14:57:13;24.60;49.70
46932;DHT22;32670;51.464;11.964;2023-05-23T14:59:38;24.60;49.30
46932;DHT22;32670;51.464;11.964;2023-05-23T15:02:04;24.40;47.30
46932;DHT22;32670;51.464;11.964;2023-05-23T15:04:31;24.20;47.00
46932;DHT22;32670;51.464;11.964;2023-05-23T15:06:56;24.00;46.80
46932;DHT22;32670;51.464;11.964;2023-05-23T15:09:22;23.80;46.70
46932;DHT22;32670;51.464;11.964;2023-05-23T15:11:47;23.60;46.50
46932;DHT22;32670;51.464;11.964;2023-05-23T15:14:17;23.50;46.60
46932;DHT22;32670;51.464;11.964;2023-05-23T15:16:43;23.40;46.70
46932;DHT22;32670;51.464;11.964;2023-05-23T15:19:09;23.20;47.00
46932;DHT22;32670;51.464;11.964;2023-05-23T15:21:34;23.10;47.20
46932;DHT22;32670;51.464;11.964;2023-05-23T15:24:00;23.10;47.50
46932;DHT22;32670;51.464;11.964;2023-05-23T15:26:26;23.00;47.40
46932;DHT22;32670;51.464;11.964;2023-05-23T15:28:51;22.90;47.50